Flight Track Log - Related Links

Times and Time Zones

All times are in EST time to prevent confusion due to time zone crossing. See the FDX1421 flight status page for this flight to view local times or setup timezone preferences in your user account.

Time Position Orientation Groundspeed Altitude Reporting Facility
EST Latitude Longitude Course Direction KTS MPH feet Rate Location/Type
Thu 04:18:38 AM 35.0167 -89.9667 165° South 154 177 900  Level Anchorage Center
Thu 04:19:38 AM 34.9667 -89.9500 141° Southeast 195 224 2,200 1,700 Climbing Anchorage Center
Thu 04:20:38 AM 34.9167 -89.9000 90° East 256 295 4,300 2,381 Climbing Anchorage Center
Thu 04:21:44 AM 34.9167 -89.8000 95° East 287 330 7,200 2,228 Climbing Anchorage Center
Thu 04:23:25 AM 34.9028 -89.6153 97° East 363 418 10,500 1,714 Climbing Memphis Center
Thu 04:24:25 AM 34.8894 -89.4761 106° East 376 433 11,800 1,750 Climbing Memphis Center
Thu 04:25:25 AM 34.8550 -89.3347 105° East 421 484 14,000 1,900 Climbing Memphis Center
Thu 04:26:25 AM 34.8244 -89.1983 106° East 446 513 15,600 1,900 Climbing Memphis Center
Thu 04:27:25 AM 34.7875 -89.0372 106° East 473 544 17,800 2,100 Climbing Memphis Center
Thu 04:28:25 AM 34.7503 -88.8783 106° East 478 550 19,800 1,950 Climbing Memphis Center
Thu 04:29:25 AM 34.7128 -88.7175 105° East 489 563 21,700 1,650 Climbing Memphis Center
Thu 04:30:25 AM 34.6750 -88.5489 107° East 506 582 23,100 1,350 Climbing Memphis Center
Thu 04:31:25 AM 34.6347 -88.3858 106° East 506 582 24,400 1,250 Climbing Memphis Center
Thu 04:32:25 AM 34.5944 -88.2100 107° East 519 597 25,600 1,200 Climbing Memphis Center
Thu 04:33:25 AM 34.5447 -88.0072 105° East 553 636 26,800 700 Climbing Memphis Center
Thu 04:34:25 AM 34.5036 -87.8267 106° East 561 646 27,000 100 Climbing Memphis Center
Thu 04:35:25 AM 34.4603 -87.6467 106° East 561 646 27,000  Level Memphis Center
Thu 04:41:23 AM 34.1976 -86.5920 107° East 545 627 27,000  Level FlightAware ADS-B
Thu 04:41:53 AM 34.1754 -86.5019 107° East 545 627 27,000  Level FlightAware ADS-B
Thu 04:42:51 AM 34.1397 -86.3578 107° East 542 624 27,000 -458 Level Atlanta Center
Thu 04:43:51 AM 34.0950 -86.1836 107° East 542 624 26,100 -2,000 Descending Atlanta Center
Thu 04:44:51 AM 34.0519 -86.0169 107° East 542 624 23,000 -2,900 Descending Atlanta Center
Thu 04:45:51 AM 34.0067 -85.8356 107° East 525 604 20,300 -2,550 Descending Atlanta Center
Thu 04:46:51 AM 33.9692 -85.6844 108° East 488 562 17,900 -2,350 Descending Atlanta Center
Thu 04:47:51 AM 33.9292 -85.5383 108° East 459 528 15,600 -2,300 Descending Atlanta Center
Thu 04:48:51 AM 33.8911 -85.4003 108° East 448 516 13,300 -1,900 Descending Atlanta Center
Thu 04:49:51 AM 33.8589 -85.2819 109° East 433 498 11,800 -1,150 Descending Atlanta Center
Thu 04:50:51 AM 33.8225 -85.1542 114° Southeast 416 479 11,000 -650 Descending Atlanta Center
Thu 04:51:51 AM 33.7797 -85.0361 114° Southeast 394 453 10,500 -550 Descending Atlanta Center
Thu 04:52:51 AM 33.7431 -84.9381 116° Southeast 351 404 9,900 -1,180 Descending Atlanta Center
Thu 04:53:53 AM 33.7000 -84.8333 107° East 282 325 8,100 -1,810 Descending Atlanta TRACON
Thu 04:54:47 AM 33.6833 -84.7667 103° East 272 313 6,400 -1,517 Descending Atlanta TRACON
Thu 04:56:47 AM 33.6500 -84.6000 90° East 243 280 3,700 -1,345 Descending Atlanta TRACON
Thu 04:57:41 AM 33.6500 -84.5333 90° East 203 234 2,500 -1,053 Descending Atlanta TRACON
Thu 04:58:41 AM 33.6500 -84.4833 90° East 145 167 1,700 -800 Descending Atlanta TRACON

Login

Don't have an account? Register now (free) for customized features, flight alerts, and more!